Coral Coast — WDF5120 — position and weather

sailwx.info

Track history (hours):
 
Tides and Currents Weather Stations Pressure Air Temp Water Temp Dewpoint Dewpoint Depression Visibility Wind Speed Wind Dir Waves Ship Positions

Coral Coast

Owner: Dann MarineTowing, LC., Chesapeake City, MD. More information available from US FCC via Universal Licensing System and Coast Guard Vessel Documentation Center.

Last reported at 2015-Jul-28 12:34 UTC. Time now 2015-Jul-28 13:18 UTC.
Position N 41°48' W 071°23'.

Length 70 m; draft 5.3 m.

Type: Tug. MMSI: 367459570.

Date/timePositionNaut miles runAvg speedWind from/ knotsBaromVisibWave heightAir tempDewpointWater temp
2015-Jul-28 12:34N 41°48' W 071°23'0 0.0
2015-Jul-28 11:34N 41°48' W 071°23'0 0.0
2015-Jul-28 10:34N 41°48' W 071°23'0 0.0
2015-Jul-28 09:33N 41°48' W 071°23'0 0.0
2015-Jul-28 08:33N 41°48' W 071°23'0 0.0
2015-Jul-28 07:33N 41°48' W 071°23'0 0.0
2015-Jul-28 06:34N 41°48' W 071°23'0 0.0
2015-Jul-28 05:34N 41°48' W 071°23'0 0.0
2015-Jul-28 04:33N 41°48' W 071°23'0 0.0
2015-Jul-28 03:33N 41°48' W 071°23'0 0.0
2015-Jul-28 02:34N 41°48' W 071°23'0 0.0
2015-Jul-28 01:33N 41°48' W 071°23'0 0.0
2015-Jul-28 00:34N 41°48' W 071°23'0 0.0
2015-Jul-27 23:31N 41°48' W 071°23'2 2.0
2015-Jul-27 22:34N 41°46' W 071°22'7 6.9
2015-Jul-27 21:34N 41°40' W 071°19'7 7.5
2015-Jul-27 20:34N 41°32' W 071°20'5 5.5
2015-Jul-27 19:34N 41°27' W 071°23'7 7.4
2015-Jul-27 18:33N 41°20' W 071°25'7 7.1
2015-Jul-27 17:34N 41°14' W 071°29'7 6.6
2015-Jul-27 16:34N 41°08' W 071°33'7 6.5
2015-Jul-27 15:34N 41°04' W 071°39'7 6.8
2015-Jul-27 14:34N 41°00' W 071°47'8 6.5
2015-Jul-27 13:22N 40°57' W 071°56'5 6.8
2015-Jul-27 12:33N 40°55' W 072°03'37 7.0
2015-Jul-27 07:15N 40°41' W 072°49'5 7.3
2015-Jul-27 06:33N 40°40' W 072°55'8 7.4
2015-Jul-27 05:28N 40°37' W 073°05'7 7.6
2015-Jul-27 04:34N 40°34' W 073°14'8 7.7
2015-Jul-27 03:33N 40°31' W 073°23'8 7.8
2015-Jul-27 02:33N 40°26' W 073°31'8 7.8
2015-Jul-27 01:34N 40°20' W 073°38'8 7.7
2015-Jul-27 00:33N 40°14' W 073°44'12 7.9
2015-Jul-26 23:04N 40°05' W 073°53'4 8.0
2015-Jul-26 22:33N 40°00' W 073°54'8 7.8
2015-Jul-26 21:33N 39°53' W 073°56'8 7.8
2015-Jul-26 20:33N 39°45' W 073°59'8 7.7
2015-Jul-26 19:33N 39°38' W 074°03'8 7.7
2015-Jul-26 18:33N 39°31' W 074°07'7 7.4
2015-Jul-26 17:33N 39°25' W 074°12'16 7.7
2015-Jul-26 15:31N 39°11' W 074°21'7 7.6
2015-Jul-26 14:33N 39°04' W 074°25'8 7.7
2015-Jul-26 13:32N 38°57' W 074°30'7 7.6
2015-Jul-26 12:33N 38°51' W 074°35'8 7.6
2015-Jul-26 11:33N 38°44' W 074°39'7 7.5
2015-Jul-26 10:33N 38°37' W 074°42'8 7.7
2015-Jul-26 09:34N 38°30' W 074°46'8 7.8
2015-Jul-26 08:33N 38°22' W 074°49'8 7.8
2015-Jul-26 07:32N 38°15' W 074°53'236 6.7
2015-Jul-24 20:04N 34°28' W 076°13'4 6.3
2015-Jul-24 19:24N 34°25' W 076°17'  
2015-Jul-21 02:08N 33°51' W 077°16'12 7.8
2015-Jul-21 00:33N 33°58' W 077°05'8 7.9
2015-Jul-20 23:31N 34°03' W 076°57'8 8.1
2015-Jul-20 22:34N 34°08' W 076°49'8 8.0
2015-Jul-20 21:32N 34°13' W 076°41'281 7.7
2015-Jul-19 09:07N 38°37' W 074°44'6 8.8
2015-Jul-19 08:24N 38°42' W 074°40'9 8.6
2015-Jul-19 07:19N 38°51' W 074°35'8 8.5
2015-Jul-19 06:25N 38°58' W 074°31'8 8.5
2015-Jul-19 05:31N 39°05' W 074°27'8 8.3
2015-Jul-19 04:34N 39°12' W 074°22'33 8.2
2015-Jul-19 00:33N 39°40' W 074°01'8 8.2
2015-Jul-18 23:33N 39°48' W 073°58'8 8.2
2015-Jul-18 22:33N 39°56' W 073°57'8 8.0
2015-Jul-18 21:32N 40°04' W 073°56'8 7.9
2015-Jul-18 20:28N 40°13' W 073°55'7 8.0
2015-Jul-18 19:32N 40°20' W 073°54'8 8.4
2015-Jul-18 18:34N 40°28' W 073°54'9 9.4
2015-Jul-18 17:34N 40°35' W 074°02'9 8.7
2015-Jul-18 16:34N 40°43' W 073°58'7 6.7
2015-Jul-18 15:34N 40°48' W 073°51'2 2.0
2015-Jul-18 14:34N 40°46' W 073°51'0 0.0
2015-Jul-18 13:34N 40°46' W 073°51'0 0.0
2015-Jul-18 12:34N 40°46' W 073°51'  
Track history (hours):
 
Tides and Currents Weather Stations Pressure Air Temp Water Temp Dewpoint Dewpoint Depression Visibility Wind Speed Wind Dir Waves Ship Positions

Coral Coast

Owner: Dann MarineTowing, LC., Chesapeake City, MD. More information available from US FCC via Universal Licensing System and Coast Guard Vessel Documentation Center.

Last reported at 2015-Jul-28 12:34 UTC. Time now 2015-Jul-28 13:18 UTC.
Position N 41°48' W 071°23'.

Length 70 m; draft 5.3 m.

Type: Tug. MMSI: 367459570.

Date/timePositionNaut miles runAvg speedWind from/ knotsBaromVisibWave heightAir tempDewpointWater temp
2015-Jul-28 12:34N 41°48' W 071°23'0 0.0
2015-Jul-28 11:34N 41°48' W 071°23'0 0.0
2015-Jul-28 10:34N 41°48' W 071°23'0 0.0
2015-Jul-28 09:33N 41°48' W 071°23'0 0.0
2015-Jul-28 08:33N 41°48' W 071°23'0 0.0
2015-Jul-28 07:33N 41°48' W 071°23'0 0.0
2015-Jul-28 06:34N 41°48' W 071°23'0 0.0
2015-Jul-28 05:34N 41°48' W 071°23'0 0.0
2015-Jul-28 04:33N 41°48' W 071°23'0 0.0
2015-Jul-28 03:33N 41°48' W 071°23'0 0.0
2015-Jul-28 02:34N 41°48' W 071°23'0 0.0
2015-Jul-28 01:33N 41°48' W 071°23'0 0.0
2015-Jul-28 00:34N 41°48' W 071°23'0 0.0
2015-Jul-27 23:31N 41°48' W 071°23'2 2.0
2015-Jul-27 22:34N 41°46' W 071°22'7 6.9
2015-Jul-27 21:34N 41°40' W 071°19'7 7.5
2015-Jul-27 20:34N 41°32' W 071°20'5 5.5
2015-Jul-27 19:34N 41°27' W 071°23'7 7.4
2015-Jul-27 18:33N 41°20' W 071°25'7 7.1
2015-Jul-27 17:34N 41°14' W 071°29'7 6.6
2015-Jul-27 16:34N 41°08' W 071°33'7 6.5
2015-Jul-27 15:34N 41°04' W 071°39'7 6.8
2015-Jul-27 14:34N 41°00' W 071°47'8 6.5
2015-Jul-27 13:22N 40°57' W 071°56'5 6.8
2015-Jul-27 12:33N 40°55' W 072°03'37 7.0
2015-Jul-27 07:15N 40°41' W 072°49'5 7.3
2015-Jul-27 06:33N 40°40' W 072°55'8 7.4
2015-Jul-27 05:28N 40°37' W 073°05'7 7.6
2015-Jul-27 04:34N 40°34' W 073°14'8 7.7
2015-Jul-27 03:33N 40°31' W 073°23'8 7.8
2015-Jul-27 02:33N 40°26' W 073°31'8 7.8
2015-Jul-27 01:34N 40°20' W 073°38'8 7.7
2015-Jul-27 00:33N 40°14' W 073°44'12 7.9
2015-Jul-26 23:04N 40°05' W 073°53'4 8.0
2015-Jul-26 22:33N 40°00' W 073°54'8 7.8
2015-Jul-26 21:33N 39°53' W 073°56'8 7.8
2015-Jul-26 20:33N 39°45' W 073°59'8 7.7
2015-Jul-26 19:33N 39°38' W 074°03'8 7.7
2015-Jul-26 18:33N 39°31' W 074°07'7 7.4
2015-Jul-26 17:33N 39°25' W 074°12'16 7.7
2015-Jul-26 15:31N 39°11' W 074°21'7 7.6
2015-Jul-26 14:33N 39°04' W 074°25'8 7.7
2015-Jul-26 13:32N 38°57' W 074°30'7 7.6
2015-Jul-26 12:33N 38°51' W 074°35'8 7.6
2015-Jul-26 11:33N 38°44' W 074°39'7 7.5
2015-Jul-26 10:33N 38°37' W 074°42'8 7.7
2015-Jul-26 09:34N 38°30' W 074°46'8 7.8
2015-Jul-26 08:33N 38°22' W 074°49'8 7.8
2015-Jul-26 07:32N 38°15' W 074°53'236 6.7
2015-Jul-24 20:04N 34°28' W 076°13'4 6.3
2015-Jul-24 19:24N 34°25' W 076°17'  
2015-Jul-21 02:08N 33°51' W 077°16'12 7.8
2015-Jul-21 00:33N 33°58' W 077°05'8 7.9
2015-Jul-20 23:31N 34°03' W 076°57'8 8.1
2015-Jul-20 22:34N 34°08' W 076°49'8 8.0
2015-Jul-20 21:32N 34°13' W 076°41'281 7.7
2015-Jul-19 09:07N 38°37' W 074°44'6 8.8
2015-Jul-19 08:24N 38°42' W 074°40'9 8.6
2015-Jul-19 07:19N 38°51' W 074°35'8 8.5
2015-Jul-19 06:25N 38°58' W 074°31'8 8.5
2015-Jul-19 05:31N 39°05' W 074°27'8 8.3
2015-Jul-19 04:34N 39°12' W 074°22'33 8.2
2015-Jul-19 00:33N 39°40' W 074°01'8 8.2
2015-Jul-18 23:33N 39°48' W 073°58'8 8.2
2015-Jul-18 22:33N 39°56' W 073°57'8 8.0
2015-Jul-18 21:32N 40°04' W 073°56'8 7.9
2015-Jul-18 20:28N 40°13' W 073°55'7 8.0
2015-Jul-18 19:32N 40°20' W 073°54'8 8.4
2015-Jul-18 18:34N 40°28' W 073°54'9 9.4
2015-Jul-18 17:34N 40°35' W 074°02'9 8.7
2015-Jul-18 16:34N 40°43' W 073°58'7 6.7
2015-Jul-18 15:34N 40°48' W 073°51'2 2.0
2015-Jul-18 14:34N 40°46' W 073°51'0 0.0
2015-Jul-18 13:34N 40°46' W 073°51'0 0.0
2015-Jul-18 12:34N 40°46' W 073°51'  

Dump ship's entire track history